Time;durP1;ratioP1;P1;durP2;ratioP2;P2;SDS_P1;SDS_P2;PMS_P1;PMS_P2;Temp;Humidity;BMP_temperature;BMP_pressure;BME280_temperature;BME280_humidity;BME280_pressure;Samples;Min_cycle;Max_cycle;Signal;HPM_P1;HPM_P2
2020/12/06 00:00:53;;;;;;;72.72;47.50;;;4.80;95.90;;;;;;2056497;28;20023;-66
2020/12/06 00:01:53;;;;;;;72.20;47.30;;;4.80;95.90;;;;;;2056618;28;20031;-65
2020/12/06 00:02:54;;;;;;;78.40;50.05;;;4.80;95.80;;;;;;2055945;28;20552;-65
2020/12/06 00:03:55;;;;;;;78.60;50.95;;;4.80;95.80;;;;;;2056630;28;20035;-65
2020/12/06 00:04:55;;;;;;;75.22;49.72;;;4.80;95.90;;;;;;2056632;28;20074;-65
2020/12/06 00:05:56;;;;;;;76.30;50.10;;;4.70;96.30;;;;;;2056467;28;20026;-65
2020/12/06 00:06:57;;;;;;;74.40;48.30;;;4.70;96.00;;;;;;2056181;28;20015;-65
2020/12/06 00:07:58;;;;;;;72.47;47.47;;;4.70;95.90;;;;;;2056475;28;20037;-65
2020/12/06 00:08:59;;;;;;;71.75;47.83;;;4.70;96.00;;;;;;2056555;28;20490;-65
2020/12/06 00:10:00;;;;;;;72.53;47.47;;;4.70;96.10;;;;;;2056276;28;20030;-65
2020/12/06 00:11:01;;;;;;;71.78;47.75;;;4.70;95.90;;;;;;2056570;28;20137;-65
2020/12/06 00:12:01;;;;;;;73.32;48.17;;;4.70;95.90;;;;;;2056557;28;20402;-65
2020/12/06 00:13:03;;;;;;;71.13;47.63;;;4.70;95.90;;;;;;2055871;28;20394;-65
2020/12/06 00:14:03;;;;;;;69.97;46.22;;;4.70;96.00;;;;;;2056421;28;20092;-65
2020/12/06 00:15:09;;;;;;;72.00;47.13;;;4.70;96.00;;;;;;2056360;28;20138;-65
2020/12/06 00:16:12;;;;;;;69.38;45.65;;;4.70;96.00;;;;;;2056426;28;20031;-65
2020/12/06 00:17:14;;;;;;;71.47;46.63;;;4.70;96.00;;;;;;2056332;28;20019;-65
2020/12/06 00:18:14;;;;;;;71.75;47.20;;;4.70;96.00;;;;;;2056489;28;20026;-65
2020/12/06 00:19:15;;;;;;;68.07;46.15;;;4.70;96.00;;;;;;2056185;28;20454;-65
2020/12/06 00:20:16;;;;;;;63.08;43.50;;;4.70;96.00;;;;;;2056362;28;20046;-65
2020/12/06 00:21:18;;;;;;;69.95;45.75;;;4.70;96.10;;;;;;2056291;28;20386;-65
2020/12/06 00:22:19;;;;;;;65.45;44.20;;;4.60;96.00;;;;;;2056369;28;20038;-65
2020/12/06 00:23:22;;;;;;;67.55;44.90;;;4.60;96.10;;;;;;2055762;28;20034;-65
2020/12/06 00:24:23;;;;;;;65.15;43.20;;;4.60;96.10;;;;;;2055882;28;20034;-65
2020/12/06 00:25:24;;;;;;;62.80;42.55;;;4.60;96.10;;;;;;2055872;28;20468;-65
2020/12/06 00:26:26;;;;;;;63.05;42.40;;;4.60;96.30;;;;;;2056495;28;20031;-65
2020/12/06 00:27:31;;;;;;;62.08;41.80;;;4.60;96.40;;;;;;2056379;28;20524;-65
2020/12/06 00:28:32;;;;;;;60.20;41.15;;;4.60;96.30;;;;;;2056285;28;20118;-65
2020/12/06 00:29:33;;;;;;;60.88;40.85;;;4.60;96.30;;;;;;2056073;28;20027;-65
2020/12/06 00:30:33;;;;;;;56.38;38.67;;;4.60;96.30;;;;;;2056200;28;20570;-65
2020/12/06 00:31:34;;;;;;;58.05;39.03;;;4.60;96.20;;;;;;2056495;28;20106;-65
2020/12/06 00:32:37;;;;;;;59.33;40.75;;;4.60;96.10;;;;;;2055896;28;20072;-65
2020/12/06 00:33:38;;;;;;;62.17;41.33;;;4.60;96.40;;;;;;2056514;28;20865;-65
2020/12/06 00:34:38;;;;;;;61.60;41.00;;;4.60;96.50;;;;;;2056475;28;20041;-65
2020/12/06 00:35:39;;;;;;;62.42;41.05;;;4.70;96.70;;;;;;2056152;28;20475;-65
2020/12/06 00:36:40;;;;;;;62.22;41.03;;;4.70;96.70;;;;;;2056226;28;20027;-65
2020/12/06 00:37:43;;;;;;;60.05;40.30;;;4.70;96.80;;;;;;2055652;28;20415;-65
2020/12/06 00:38:44;;;;;;;57.80;39.55;;;4.70;96.90;;;;;;2055630;28;20026;-65
2020/12/06 00:39:45;;;;;;;58.53;38.72;;;4.70;96.90;;;;;;2055930;28;20081;-65
2020/12/06 00:40:46;;;;;;;55.30;38.08;;;4.70;96.90;;;;;;2056356;28;20715;-65
2020/12/06 00:41:46;;;;;;;57.00;38.78;;;4.80;97.10;;;;;;2055588;28;20019;-65
2020/12/06 00:42:47;;;;;;;58.38;39.45;;;4.80;97.20;;;;;;2055152;28;20534;-65
2020/12/06 00:43:48;;;;;;;57.38;38.67;;;4.80;96.90;;;;;;2056160;28;20495;-65
2020/12/06 00:44:48;;;;;;;56.58;38.53;;;4.80;97.00;;;;;;2056250;28;20019;-65
2020/12/06 00:45:49;;;;;;;71.05;46.70;;;4.80;96.90;;;;;;2055717;28;20399;-65
2020/12/06 00:46:50;;;;;;;66.57;44.50;;;4.80;96.60;;;;;;2056090;28;20022;-65
2020/12/06 00:47:51;;;;;;;66.68;43.88;;;4.80;96.60;;;;;;2055555;28;20581;-65
2020/12/06 00:48:51;;;;;;;64.35;42.80;;;4.80;96.80;;;;;;2055564;28;20111;-65
2020/12/06 00:49:52;;;;;;;73.05;47.90;;;4.80;97.10;;;;;;2055615;28;20026;-66
2020/12/06 00:50:53;;;;;;;80.75;51.28;;;4.80;97.10;;;;;;2055404;28;20755;-65
2020/12/06 00:51:55;;;;;;;79.95;51.30;;;4.70;96.70;;;;;;2055545;28;20477;-65
2020/12/06 00:52:56;;;;;;;73.00;48.22;;;4.70;96.60;;;;;;2054978;28;20451;-65
2020/12/06 00:53:58;;;;;;;69.63;46.70;;;4.70;96.50;;;;;;2047486;29;20114;-66
2020/12/06 00:55:00;;;;;;;68.38;45.80;;;4.60;96.80;;;;;;2047975;28;20035;-65
2020/12/06 00:56:01;;;;;;;65.60;43.53;;;4.70;96.90;;;;;;2063618;28;20022;-65
2020/12/06 00:57:02;;;;;;;66.20;43.33;;;4.70;96.90;;;;;;2055935;28;20189;-66
2020/12/06 00:58:02;;;;;;;63.22;41.92;;;4.70;96.90;;;;;;2056176;28;20061;-65
2020/12/06 00:59:03;;;;;;;61.05;40.47;;;4.70;97.20;;;;;;2055690;28;20094;-65
2020/12/06 01:00:07;;;;;;;61.78;41.30;;;4.70;97.10;;;;;;2056103;28;20811;-65
2020/12/06 01:01:08;;;;;;;62.35;41.08;;;4.70;97.10;;;;;;2056009;28;20034;-65
2020/12/06 01:02:11;;;;;;;63.55;41.50;;;4.70;97.30;;;;;;2055634;28;20074;-65
2020/12/06 01:03:12;;;;;;;68.07;44.75;;;4.80;97.30;;;;;;2055031;28;20090;-66
2020/12/06 01:04:12;;;;;;;66.90;43.92;;;4.80;97.10;;;;;;2055970;28;20097;-66
2020/12/06 01:05:13;;;;;;;69.95;46.10;;;4.80;96.90;;;;;;2056003;28;20058;-65
2020/12/06 01:06:15;;;;;;;83.65;51.97;;;4.80;96.80;;;;;;2056160;28;20426;-65
2020/12/06 01:07:16;;;;;;;82.82;53.83;;;4.70;96.60;;;;;;2056151;28;20031;-64
2020/12/06 01:08:20;;;;;;;79.55;52.53;;;4.70;96.50;;;;;;2056141;28;20038;-65
2020/12/06 01:09:20;;;;;;;82.70;52.75;;;4.60;96.40;;;;;;2055810;28;20782;-65
2020/12/06 01:10:21;;;;;;;86.03;54.33;;;4.50;96.40;;;;;;2055964;28;20034;-65
2020/12/06 01:11:22;;;;;;;83.38;53.30;;;4.50;96.60;;;;;;2056085;28;20042;-65
2020/12/06 01:12:24;;;;;;;81.53;52.30;;;4.40;96.70;;;;;;2055983;28;20046;-65
2020/12/06 01:13:24;;;;;;;80.40;51.92;;;4.30;96.80;;;;;;2056100;28;20034;-65
2020/12/06 01:14:25;;;;;;;83.65;52.80;;;4.30;96.90;;;;;;2056177;28;20034;-65
2020/12/06 01:15:26;;;;;;;87.25;52.92;;;4.30;97.00;;;;;;2055982;28;20101;-65
2020/12/06 01:16:27;;;;;;;80.78;50.47;;;4.20;97.10;;;;;;2056139;28;20027;-65
2020/12/06 01:17:28;;;;;;;81.38;51.80;;;4.20;97.10;;;;;;2056074;28;20541;-65
2020/12/06 01:18:28;;;;;;;78.05;49.63;;;4.20;97.20;;;;;;2055961;28;20375;-65
2020/12/06 01:19:29;;;;;;;79.45;49.88;;;4.10;97.20;;;;;;2054559;28;20454;-65
2020/12/06 01:20:30;;;;;;;78.93;49.75;;;4.10;97.50;;;;;;2055327;28;20031;-65
2020/12/06 01:21:30;;;;;;;80.60;51.25;;;4.10;97.20;;;;;;2055868;28;20034;-66
2020/12/06 01:22:31;;;;;;;77.53;49.40;;;4.10;97.30;;;;;;2055539;28;20407;-66
2020/12/06 01:23:32;;;;;;;76.03;48.58;;;4.10;97.40;;;;;;2056102;28;20034;-65
2020/12/06 01:24:33;;;;;;;76.50;48.50;;;4.10;97.40;;;;;;2056079;28;20061;-66
2020/12/06 01:25:34;;;;;;;80.32;50.28;;;4.00;97.30;;;;;;2056159;28;20041;-65
2020/12/06 01:26:34;;;;;;;80.72;50.17;;;4.10;97.20;;;;;;2055722;28;20050;-65
2020/12/06 01:27:35;;;;;;;75.78;47.78;;;4.00;97.10;;;;;;2055914;28;20031;-65
2020/12/06 01:28:36;;;;;;;72.07;46.28;;;4.00;97.10;;;;;;2055954;28;20058;-65
2020/12/06 01:29:36;;;;;;;71.20;45.13;;;3.90;97.00;;;;;;2055695;28;20610;-65
2020/12/06 01:30:37;;;;;;;67.68;44.20;;;3.90;97.00;;;;;;2055638;28;20038;-65
2020/12/06 01:31:38;;;;;;;69.93;45.28;;;3.90;97.10;;;;;;2055221;28;20031;-65
2020/12/06 01:32:39;;;;;;;71.50;45.25;;;3.90;97.00;;;;;;2046807;29;20146;-66
2020/12/06 01:33:40;;;;;;;71.85;46.03;;;4.00;97.10;;;;;;2054929;28;20034;-66
2020/12/06 01:34:41;;;;;;;66.88;44.10;;;3.90;97.10;;;;;;2055685;28;20027;-66
2020/12/06 01:35:41;;;;;;;67.00;44.90;;;3.90;97.10;;;;;;2055622;28;20561;-65
2020/12/06 01:36:43;;;;;;;67.10;44.13;;;3.90;97.10;;;;;;2056070;28;20026;-65
2020/12/06 01:37:44;;;;;;;67.65;43.78;;;3.90;97.20;;;;;;2056085;28;20035;-65
2020/12/06 01:38:45;;;;;;;65.70;43.40;;;3.90;97.20;;;;;;2055719;28;20049;-66
2020/12/06 01:39:45;;;;;;;63.13;41.90;;;3.90;97.20;;;;;;2055518;28;20042;-66
2020/12/06 01:40:46;;;;;;;62.30;41.72;;;3.90;97.20;;;;;;2054999;28;20027;-66
2020/12/06 01:41:47;;;;;;;66.15;41.60;;;3.90;97.20;;;;;;2054862;28;20470;-67
2020/12/06 01:42:48;;;;;;;58.67;39.35;;;3.90;97.50;;;;;;2055291;28;20454;-66
2020/12/06 01:43:56;;;;;;;59.42;39.03;;;3.90;97.10;;;;;;2055816;28;20042;-67
2020/12/06 01:44:58;;;;;;;60.65;39.67;;;3.90;97.00;;;;;;2055612;28;20110;-66
2020/12/06 01:45:59;;;;;;;62.35;39.95;;;3.90;97.40;;;;;;2055876;28;20035;-65
2020/12/06 01:47:01;;;;;;;59.42;39.80;;;3.90;97.10;;;;;;2055823;28;20034;-67
2020/12/06 01:48:07;;;;;;;61.08;39.92;;;4.00;97.10;;;;;;2055772;28;20371;-65
2020/12/06 01:49:08;;;;;;;63.38;40.72;;;3.90;97.10;;;;;;2055349;28;20482;-66
2020/12/06 01:50:09;;;;;;;65.28;42.78;;;3.90;97.00;;;;;;2055481;28;20088;-66
2020/12/06 01:51:10;;;;;;;64.93;42.50;;;3.90;97.50;;;;;;2055751;28;20426;-66
2020/12/06 01:52:11;;;;;;;61.83;41.17;;;3.90;97.20;;;;;;2055015;28;20035;-67
2020/12/06 01:53:12;;;;;;;62.50;41.05;;;4.00;97.20;;;;;;2054718;28;20023;-66
2020/12/06 01:54:13;;;;;;;61.83;40.72;;;4.00;97.20;;;;;;2055920;28;20487;-66
2020/12/06 01:55:14;;;;;;;64.35;41.53;;;4.00;97.20;;;;;;2055645;28;20043;-66
2020/12/06 01:56:15;;;;;;;63.72;41.35;;;4.00;97.20;;;;;;2055708;28;20026;-66
2020/12/06 01:57:16;;;;;;;65.57;40.88;;;4.00;97.20;;;;;;2056789;28;20042;-66
2020/12/06 01:58:17;;;;;;;64.15;41.65;;;4.00;97.20;;;;;;2057313;28;20027;-66
2020/12/06 01:59:18;;;;;;;65.03;42.40;;;4.00;97.20;;;;;;2057031;28;20509;-65
2020/12/06 02:00:19;;;;;;;64.93;42.00;;;4.00;97.20;;;;;;2057379;28;20496;-66
2020/12/06 02:01:19;;;;;;;62.75;41.28;;;4.00;97.20;;;;;;2057496;28;20027;-66
2020/12/06 02:02:20;;;;;;;63.67;41.97;;;4.00;97.20;;;;;;2057380;28;20042;-65
2020/12/06 02:03:21;;;;;;;61.83;40.15;;;4.00;97.20;;;;;;2056779;28;20034;-65
2020/12/06 02:04:24;;;;;;;61.88;40.65;;;4.00;97.20;;;;;;2056784;28;20446;-66
2020/12/06 02:05:26;;;;;;;74.65;46.28;;;4.00;97.20;;;;;;2056736;28;20506;-66
2020/12/06 02:06:27;;;;;;;68.93;43.83;;;4.00;97.30;;;;;;2057311;28;20093;-66
2020/12/06 02:07:30;;;;;;;66.93;43.95;;;4.00;97.30;;;;;;2057463;28;20035;-65
2020/12/06 02:08:31;;;;;;;67.47;43.83;;;4.00;97.40;;;;;;2056958;28;20038;-63
2020/12/06 02:09:32;;;;;;;70.47;45.05;;;4.00;97.50;;;;;;2056375;28;20035;-66
2020/12/06 02:10:33;;;;;;;71.70;46.33;;;4.00;97.80;;;;;;2057264;28;20379;-65
2020/12/06 02:11:36;;;;;;;70.88;45.78;;;4.00;97.40;;;;;;2057280;28;20065;-66
2020/12/06 02:12:37;;;;;;;69.90;44.35;;;4.00;97.30;;;;;;2056775;28;20109;-66
2020/12/06 02:13:37;;;;;;;69.50;44.88;;;3.90;97.30;;;;;;2057403;28;20466;-66
2020/12/06 02:14:38;;;;;;;71.32;45.45;;;4.00;97.40;;;;;;2057227;28;20390;-64
2020/12/06 02:15:39;;;;;;;66.35;43.85;;;4.00;97.40;;;;;;2057482;28;20011;-64
2020/12/06 02:16:40;;;;;;;69.68;45.58;;;3.90;97.30;;;;;;2057443;28;20073;-65
2020/12/06 02:17:41;;;;;;;68.95;44.60;;;3.90;97.30;;;;;;2057113;28;20023;-66
2020/12/06 02:18:42;;;;;;;67.00;43.08;;;3.90;97.40;;;;;;2057196;28;20470;-66
2020/12/06 02:19:42;;;;;;;65.95;43.28;;;4.00;97.50;;;;;;2057000;28;20560;-66
2020/12/06 02:20:43;;;;;;;67.10;43.05;;;4.00;97.50;;;;;;2057419;28;20553;-64
2020/12/06 02:21:44;;;;;;;67.05;42.88;;;4.00;97.50;;;;;;2056823;28;20109;-64
2020/12/06 02:22:45;;;;;;;65.15;42.17;;;4.00;97.40;;;;;;2056322;28;20023;-64
2020/12/06 02:23:46;;;;;;;63.60;41.63;;;4.00;97.50;;;;;;2057125;28;20034;-64
2020/12/06 02:24:46;;;;;;;62.22;41.40;;;4.00;97.50;;;;;;2057000;28;20493;-64
2020/12/06 02:25:47;;;;;;;65.05;41.50;;;4.00;97.50;;;;;;2056510;28;20027;-64
2020/12/06 02:26:50;;;;;;;60.58;40.17;;;4.00;97.50;;;;;;2056428;28;20054;-64
2020/12/06 02:27:51;;;;;;;62.80;40.17;;;4.00;97.50;;;;;;2056789;28;20618;-64
2020/12/06 02:28:52;;;;;;;61.75;40.72;;;4.00;97.40;;;;;;2056496;28;20019;-64
2020/12/06 02:29:53;;;;;;;58.78;39.30;;;4.00;97.40;;;;;;2056243;28;20027;-64
2020/12/06 02:30:53;;;;;;;59.83;39.83;;;4.00;97.40;;;;;;2056724;28;20042;-64
2020/12/06 02:31:54;;;;;;;58.22;39.17;;;4.00;97.50;;;;;;2056449;28;20525;-64
2020/12/06 02:32:55;;;;;;;61.20;40.00;;;4.00;97.50;;;;;;2055993;28;20031;-64
2020/12/06 02:33:55;;;;;;;60.85;38.80;;;4.00;97.50;;;;;;2057213;28;20046;-65
2020/12/06 02:34:56;;;;;;;60.60;40.33;;;4.00;97.50;;;;;;2057235;28;20058;-65
2020/12/06 02:35:57;;;;;;;58.47;38.35;;;4.00;97.50;;;;;;2057228;28;20078;-65
2020/12/06 02:36:57;;;;;;;58.20;38.22;;;4.00;97.50;;;;;;2056652;28;20439;-66
2020/12/06 02:37:58;;;;;;;56.85;37.72;;;4.00;97.60;;;;;;2056782;28;20081;-66
2020/12/06 02:38:59;;;;;;;57.67;38.05;;;4.00;97.60;;;;;;2057076;28;20490;-66
2020/12/06 02:40:00;;;;;;;56.40;37.75;;;4.00;97.60;;;;;;2056986;28;20031;-64
2020/12/06 02:41:01;;;;;;;58.85;39.25;;;4.00;97.60;;;;;;2056975;28;20101;-65
2020/12/06 02:42:02;;;;;;;57.15;38.28;;;4.00;97.50;;;;;;2056546;28;20034;-65
2020/12/06 02:43:02;;;;;;;56.80;37.58;;;4.00;97.40;;;;;;2056001;28;20081;-66
2020/12/06 02:44:04;;;;;;;76.25;47.22;;;4.00;97.40;;;;;;2057145;28;20771;-66
2020/12/06 02:45:05;;;;;;;76.18;48.00;;;4.00;97.60;;;;;;2057073;28;20038;-66
2020/12/06 02:46:06;;;;;;;74.15;46.50;;;4.00;97.80;;;;;;2056949;28;20525;-66
2020/12/06 02:47:07;;;;;;;70.63;45.80;;;3.90;97.80;;;;;;2056805;28;20386;-66
2020/12/06 02:48:07;;;;;;;69.97;44.17;;;3.90;97.80;;;;;;2057023;28;20019;-64
2020/12/06 02:49:08;;;;;;;70.03;44.50;;;3.90;97.80;;;;;;2056565;28;20030;-66
2020/12/06 02:50:09;;;;;;;74.50;47.40;;;3.90;97.90;;;;;;2056679;28;20553;-66
2020/12/06 02:51:10;;;;;;;75.60;47.03;;;3.90;97.90;;;;;;2056335;28;20030;-64
2020/12/06 02:52:11;;;;;;;68.60;43.92;;;3.90;98.00;;;;;;2056282;28;20031;-64
2020/12/06 02:53:11;;;;;;;68.20;42.63;;;3.90;98.00;;;;;;2056383;28;20031;-65
2020/12/06 02:54:12;;;;;;;66.43;42.15;;;3.90;98.00;;;;;;2056905;28;20065;-64
2020/12/06 02:55:13;;;;;;;64.65;41.55;;;3.90;98.00;;;;;;2056830;28;20386;-64
2020/12/06 02:56:14;;;;;;;61.40;40.33;;;3.90;97.90;;;;;;2056228;28;20034;-64
2020/12/06 02:57:14;;;;;;;62.75;41.15;;;3.90;97.90;;;;;;2056365;28;20041;-65
2020/12/06 02:58:15;;;;;;;58.90;38.90;;;3.90;97.90;;;;;;2056738;28;20058;-65
2020/12/06 02:59:16;;;;;;;60.10;39.30;;;3.90;98.00;;;;;;2056650;28;20680;-64
2020/12/06 03:00:16;;;;;;;61.30;39.75;;;3.90;98.00;;;;;;2056116;28;20142;-63
2020/12/06 03:01:17;;;;;;;60.35;39.38;;;3.90;98.00;;;;;;2055967;28;20033;-64
2020/12/06 03:02:18;;;;;;;57.97;38.47;;;3.90;98.00;;;;;;2056112;28;20117;-64
2020/12/06 03:03:19;;;;;;;57.33;38.13;;;3.90;98.00;;;;;;2055675;28;20031;-63
2020/12/06 03:04:19;;;;;;;59.05;38.35;;;3.90;98.00;;;;;;2056236;28;20066;-63
2020/12/06 03:05:20;;;;;;;57.92;38.47;;;3.90;97.90;;;;;;2056085;28;20035;-63
2020/12/06 03:06:21;;;;;;;57.72;38.55;;;3.90;98.00;;;;;;2056136;28;20106;-64
2020/12/06 03:07:22;;;;;;;58.13;37.65;;;3.90;98.00;;;;;;2056252;28;20031;-63
2020/12/06 03:08:23;;;;;;;56.88;38.50;;;3.90;98.10;;;;;;2055702;28;20102;-63
2020/12/06 03:09:23;;;;;;;60.97;40.15;;;3.90;98.10;;;;;;2055620;28;20039;-64
2020/12/06 03:10:24;;;;;;;62.33;41.22;;;3.90;98.10;;;;;;2056646;28;20119;-64
2020/12/06 03:11:25;;;;;;;69.82;43.53;;;3.90;98.20;;;;;;2056829;28;20109;-64
2020/12/06 03:12:25;;;;;;;63.25;42.25;;;3.90;98.10;;;;;;2055487;28;20030;-65
2020/12/06 03:13:26;;;;;;;63.35;40.40;;;3.90;98.10;;;;;;2056248;28;20049;-65
2020/12/06 03:14:27;;;;;;;58.85;38.80;;;3.90;98.40;;;;;;2056852;28;20023;-64
2020/12/06 03:15:28;;;;;;;58.97;38.53;;;4.00;98.20;;;;;;2056573;28;20817;-65
2020/12/06 03:16:28;;;;;;;57.80;39.22;;;4.00;98.40;;;;;;2056531;28;20110;-65
2020/12/06 03:17:29;;;;;;;60.58;39.30;;;4.00;98.10;;;;;;2056727;28;20027;-64
2020/12/06 03:18:30;;;;;;;58.53;38.00;;;4.00;98.20;;;;;;2056791;28;20029;-65
2020/12/06 03:19:31;;;;;;;57.60;38.38;;;4.00;98.20;;;;;;2056208;28;20031;-65
2020/12/06 03:20:31;;;;;;;53.95;36.80;;;4.00;98.20;;;;;;2056705;28;20044;-64
2020/12/06 03:21:32;;;;;;;56.45;37.03;;;4.00;98.10;;;;;;2056614;28;20113;-65
2020/12/06 03:22:33;;;;;;;51.58;35.40;;;4.10;98.20;;;;;;2056015;28;20027;-65
2020/12/06 03:23:33;;;;;;;52.60;34.55;;;4.10;98.30;;;;;;2056479;28;20550;-65
2020/12/06 03:24:34;;;;;;;52.15;35.03;;;4.20;98.40;;;;;;2056662;28;20105;-67
2020/12/06 03:25:35;;;;;;;51.72;35.05;;;4.20;98.40;;;;;;2056742;28;20375;-64
2020/12/06 03:26:35;;;;;;;66.05;42.08;;;4.20;98.20;;;;;;2056705;28;20494;-65
2020/12/06 03:27:36;;;;;;;64.40;40.75;;;4.20;98.10;;;;;;2056916;28;20030;-65
2020/12/06 03:28:37;;;;;;;63.47;41.63;;;4.20;98.00;;;;;;2056168;28;20035;-65
2020/12/06 03:29:37;;;;;;;59.67;39.08;;;4.20;98.00;;;;;;2055816;28;20118;-64
2020/12/06 03:30:38;;;;;;;67.50;44.05;;;4.20;98.00;;;;;;2055721;28;20506;-65
2020/12/06 03:31:39;;;;;;;66.20;42.53;;;4.20;97.90;;;;;;2055982;28;20039;-64
2020/12/06 03:32:39;;;;;;;64.28;41.05;;;4.20;97.90;;;;;;2056129;28;20019;-64
2020/12/06 03:33:40;;;;;;;60.10;39.78;;;4.10;97.90;;;;;;2056656;28;20655;-65
2020/12/06 03:34:41;;;;;;;57.55;38.33;;;4.10;97.90;;;;;;2055806;28;20031;-65
2020/12/06 03:35:41;;;;;;;57.78;38.17;;;4.20;98.10;;;;;;2039927;29;20681;-65
2020/12/06 03:36:42;;;;;;;56.58;37.45;;;4.20;98.30;;;;;;2048111;29;20446;-65
2020/12/06 03:37:43;;;;;;;52.83;35.85;;;4.30;98.40;;;;;;2056259;28;20030;-64
2020/12/06 03:38:43;;;;;;;53.95;36.20;;;4.30;98.40;;;;;;2056512;28;20510;-65
2020/12/06 03:39:44;;;;;;;53.88;35.58;;;4.30;98.40;;;;;;2056103;28;20061;-65
2020/12/06 03:40:45;;;;;;;50.88;34.13;;;4.30;98.40;;;;;;2056575;28;20031;-65
2020/12/06 03:41:46;;;;;;;52.15;34.85;;;4.40;98.60;;;;;;2056462;28;20061;-65
2020/12/06 03:42:50;;;;;;;52.10;34.53;;;4.40;98.50;;;;;;2056054;28;20598;-65
2020/12/06 03:43:51;;;;;;;50.67;33.83;;;4.50;98.60;;;;;;2056447;28;20034;-65
2020/12/06 03:44:51;;;;;;;48.75;33.17;;;4.50;98.60;;;;;;2056459;28;20041;-65
2020/12/06 03:45:52;;;;;;;49.63;33.85;;;4.60;98.80;;;;;;2055578;28;20027;-65
2020/12/06 03:46:53;;;;;;;69.05;43.08;;;4.60;98.60;;;;;;2055801;28;20034;-65
2020/12/06 03:47:55;;;;;;;63.75;41.83;;;4.60;98.10;;;;;;2056377;28;20170;-65
2020/12/06 03:48:55;;;;;;;64.93;41.78;;;4.50;97.50;;;;;;2056329;28;20041;-65
2020/12/06 03:49:56;;;;;;;63.90;41.85;;;4.40;97.10;;;;;;2055918;28;20472;-67
2020/12/06 03:50:57;;;;;;;66.85;42.60;;;4.30;96.90;;;;;;2056510;28;20033;-65
2020/12/06 03:51:57;;;;;;;68.43;42.95;;;4.20;96.90;;;;;;2056241;28;20039;-65
2020/12/06 03:52:58;;;;;;;65.50;42.42;;;4.20;97.10;;;;;;2055678;28;20027;-65
2020/12/06 03:53:59;;;;;;;65.20;42.35;;;4.10;97.10;;;;;;2056388;28;20482;-65
2020/12/06 03:54:59;;;;;;;66.55;42.10;;;4.10;97.20;;;;;;2056223;28;20026;-65
2020/12/06 03:56:00;;;;;;;63.63;41.63;;;4.00;97.20;;;;;;2056253;28;20082;-65
2020/12/06 03:57:01;;;;;;;61.00;39.08;;;4.00;97.20;;;;;;2056339;28;20035;-65
2020/12/06 03:58:01;;;;;;;56.72;38.55;;;4.00;97.30;;;;;;2056401;28;20050;-65
2020/12/06 03:59:02;;;;;;;57.10;37.55;;;4.00;97.30;;;;;;2056055;28;20387;-64
2020/12/06 04:00:04;;;;;;;55.85;37.28;;;4.00;97.50;;;;;;2056096;28;20027;-65
2020/12/06 04:01:04;;;;;;;55.70;36.78;;;4.00;97.50;;;;;;2056224;28;20101;-65
2020/12/06 04:02:05;;;;;;;51.95;34.55;;;4.00;97.60;;;;;;2055474;28;20030;-65
2020/12/06 04:03:06;;;;;;;55.95;36.75;;;4.00;97.50;;;;;;2055274;28;20062;-65
2020/12/06 04:04:06;;;;;;;52.10;35.25;;;4.10;97.50;;;;;;2055526;28;20033;-65
2020/12/06 04:05:07;;;;;;;51.58;34.75;;;4.10;97.40;;;;;;2056328;28;20110;-65
2020/12/06 04:06:08;;;;;;;54.70;35.38;;;4.10;97.70;;;;;;2056367;28;20043;-65
2020/12/06 04:07:09;;;;;;;50.75;33.70;;;4.10;97.40;;;;;;2056078;28;20562;-65
2020/12/06 04:08:09;;;;;;;48.67;32.60;;;4.10;97.60;;;;;;2056014;28;20394;-65
2020/12/06 04:09:10;;;;;;;51.65;34.53;;;4.20;97.60;;;;;;2055718;28;20027;-64
2020/12/06 04:10:11;;;;;;;50.85;35.03;;;4.20;97.60;;;;;;2056160;28;20050;-65
2020/12/06 04:11:12;;;;;;;54.00;35.33;;;4.30;97.90;;;;;;2056213;28;20027;-65
2020/12/06 04:12:12;;;;;;;61.90;39.20;;;4.40;98.50;;;;;;2055670;28;20231;-65
2020/12/06 04:13:13;;;;;;;58.38;37.13;;;4.50;98.50;;;;;;2055153;28;20066;-65
2020/12/06 04:14:14;;;;;;;55.85;36.78;;;4.50;98.50;;;;;;2055624;28;20031;-64
2020/12/06 04:15:14;;;;;;;52.80;34.50;;;4.60;98.60;;;;;;2055490;28;20027;-64
2020/12/06 04:16:15;;;;;;;49.08;32.70;;;4.70;98.70;;;;;;2056279;28;20227;-65
2020/12/06 04:17:16;;;;;;;48.13;32.42;;;4.80;98.70;;;;;;2056334;28;20133;-65
2020/12/06 04:18:16;;;;;;;49.95;33.85;;;4.90;98.70;;;;;;2055568;28;20031;-64
2020/12/06 04:19:17;;;;;;;53.40;34.28;;;5.00;98.90;;;;;;2055268;28;20054;-64
2020/12/06 04:20:17;;;;;;;49.53;32.97;;;5.10;99.10;;;;;;2055581;28;20061;-65
2020/12/06 04:21:18;;;;;;;46.30;31.65;;;5.20;99.30;;;;;;2054947;28;20035;-65
2020/12/06 04:22:19;;;;;;;49.22;33.55;;;5.30;99.20;;;;;;2055427;28;20069;-65
2020/12/06 04:23:20;;;;;;;52.95;34.17;;;5.40;99.40;;;;;;2055543;28;20035;-64
2020/12/06 04:24:20;;;;;;;52.25;34.40;;;5.50;99.60;;;;;;2055516;28;20540;-65
2020/12/06 04:25:21;;;;;;;49.22;34.03;;;5.70;99.70;;;;;;2055478;28;20039;-64
2020/12/06 04:26:22;;;;;;;49.42;32.80;;;5.90;99.70;;;;;;2056361;28;20034;-64
2020/12/06 04:27:22;;;;;;;50.83;32.42;;;5.90;99.50;;;;;;2056133;28;20030;-64
2020/12/06 04:28:23;;;;;;;48.13;31.70;;;6.00;99.40;;;;;;2056183;28;20035;-65
2020/12/06 04:29:24;;;;;;;50.50;32.35;;;6.10;99.70;;;;;;2055139;28;20526;-65
2020/12/06 04:30:24;;;;;;;44.88;31.45;;;6.20;99.40;;;;;;2055728;28;20018;-66
2020/12/06 04:31:25;;;;;;;45.92;31.77;;;6.30;99.20;;;;;;2056314;28;20042;-66
2020/12/06 04:32:26;;;;;;;47.88;32.75;;;6.40;99.00;;;;;;2055775;28;20035;-66
2020/12/06 04:33:26;;;;;;;46.67;30.90;;;6.50;98.90;;;;;;2055338;28;20697;-66
2020/12/06 04:34:27;;;;;;;41.83;29.42;;;6.60;98.90;;;;;;2055688;28;20106;-66
2020/12/06 04:35:28;;;;;;;37.95;27.63;;;6.70;98.60;;;;;;2056109;28;20038;-66
2020/12/06 04:36:29;;;;;;;45.22;30.13;;;6.70;98.20;;;;;;2055913;28;20034;-65
2020/12/06 04:37:29;;;;;;;41.15;28.75;;;6.80;98.10;;;;;;2055964;28;20162;-66
2020/12/06 04:38:30;;;;;;;43.45;30.13;;;6.80;97.80;;;;;;2056031;28;20624;-66
2020/12/06 04:39:31;;;;;;;40.92;29.30;;;6.80;97.80;;;;;;2055776;28;20053;-65
2020/12/06 04:40:32;;;;;;;41.50;29.38;;;6.80;97.80;;;;;;2055987;28;20042;-65
2020/12/06 04:41:33;;;;;;;42.35;29.10;;;6.90;97.60;;;;;;2056278;28;20034;-66
2020/12/06 04:42:34;;;;;;;40.83;29.48;;;6.90;97.60;;;;;;2055694;28;20045;-66
2020/12/06 04:43:35;;;;;;;42.35;29.20;;;7.00;97.60;;;;;;2056026;28;20046;-65
2020/12/06 04:44:36;;;;;;;44.10;29.13;;;7.00;97.50;;;;;;2056095;28;20473;-65
2020/12/06 04:45:36;;;;;;;41.13;29.30;;;7.00;97.40;;;;;;2055957;28;20035;-66
2020/12/06 04:46:38;;;;;;;39.40;28.38;;;7.10;97.40;;;;;;2055591;28;20386;-65
2020/12/06 04:47:54;;;;;;;39.78;28.45;;;7.10;97.20;;;;;;2055400;28;20114;-66
2020/12/06 04:49:01;;;;;;;40.35;27.83;;;7.20;96.90;;;;;;2056111;28;20041;-66
2020/12/06 04:50:04;;;;;;;39.75;28.75;;;7.10;96.70;;;;;;2055337;28;20101;-66
2020/12/06 04:51:06;;;;;;;39.90;28.98;;;7.20;96.80;;;;;;2055206;28;20390;-66
2020/12/06 04:52:19;;;;;;;42.80;28.88;;;7.20;96.70;;;;;;2056203;28;20019;-66
2020/12/06 04:53:26;;;;;;;38.53;27.60;;;7.30;96.60;;;;;;2055420;28;20141;-65
2020/12/06 04:54:38;;;;;;;37.95;27.83;;;7.30;96.40;;;;;;2056024;28;20145;-66
2020/12/06 04:55:44;;;;;;;40.05;28.70;;;7.30;96.40;;;;;;2055974;28;20018;-65
2020/12/06 04:56:49;;;;;;;41.88;28.75;;;7.30;96.30;;;;;;2056160;28;20535;-65
2020/12/06 04:57:53;;;;;;;40.85;28.85;;;7.30;96.30;;;;;;2055907;28;20019;-65
2020/12/06 04:58:56;;;;;;;38.85;28.45;;;7.30;96.40;;;;;;2055961;28;20231;-65
2020/12/06 05:00:05;;;;;;;38.72;27.67;;;7.40;96.20;;;;;;2054751;28;20413;-67
2020/12/06 05:01:05;;;;;;;39.17;28.50;;;7.40;96.00;;;;;;2055217;28;20687;-66
2020/12/06 05:02:09;;;;;;;38.92;27.23;;;7.40;96.00;;;;;;2055121;28;20031;-66
2020/12/06 05:03:11;;;;;;;38.60;28.35;;;7.40;95.80;;;;;;2054928;28;20031;-65
2020/12/06 05:04:15;;;;;;;38.22;27.73;;;7.40;95.80;;;;;;2055916;28;20110;-66
2020/12/06 05:05:20;;;;;;;39.90;28.35;;;7.40;95.80;;;;;;2055809;28;20054;-66
2020/12/06 05:06:23;;;;;;;40.00;28.58;;;7.40;95.70;;;;;;2055813;28;20034;-65
2020/12/06 05:07:25;;;;;;;38.15;27.38;;;7.40;95.70;;;;;;2055197;28;20106;-66
2020/12/06 05:08:26;;;;;;;40.35;28.58;;;7.40;95.60;;;;;;2055353;28;20035;-66
2020/12/06 05:09:31;;;;;;;39.25;28.13;;;7.40;95.70;;;;;;2055476;28;20098;-66
2020/12/06 05:10:48;;;;;;;38.08;28.38;;;7.40;95.80;;;;;;2055920;28;20033;-66
2020/12/06 05:11:49;;;;;;;38.28;27.80;;;7.50;96.00;;;;;;2055989;28;20031;-66
2020/12/06 05:12:50;;;;;;;41.85;28.55;;;7.50;95.50;;;;;;2055275;28;20026;-66
2020/12/06 05:13:51;;;;;;;37.10;27.00;;;7.60;95.50;;;;;;2055723;28;20123;-66
2020/12/06 05:14:52;;;;;;;38.05;27.55;;;7.60;95.40;;;;;;2055838;28;20058;-65